Flight Track Log - Related Links

Times and Time Zones

All times are in EDT time to prevent confusion due to time zone crossing. See the N81ER flight status page for this flight to view local times or setup timezone preferences in your user account.

Time Position Orientation Groundspeed Altitude Reporting Facility
EDT Latitude Longitude Course Direction KTS MPH feet Rate Location/Type
Tue 11:18:23 AM 42.3140 -70.9940 138° Southeast 251 289 3,000  Level FlightAware ADS-B
Tue 11:19:03 AM 42.3080 -70.9380 98° East 260 299 4,900 1,448 Climbing FlightAware ADS-B
Tue 11:19:50 AM 42.3260 -70.8510 74° East 280 322 5,100 917 Climbing FlightAware ADS-B
Tue 11:20:15 AM 42.3350 -70.8080 74° East 286 329 6,000 2,250 Climbing FlightAware ADS-B
Tue 11:20:30 AM 42.3400 -70.7830 75° East 296 341 6,600 2,000 Climbing FlightAware ADS-B
Tue 11:21:00 AM 42.3250 -70.7360 113° Southeast 299 344 7,500 1,636 Climbing FlightAware ADS-B
Tue 11:21:25 AM 42.2910 -70.7200 161° South 291 335 8,100 1,527 Climbing FlightAware ADS-B
Tue 11:21:55 AM 42.2500 -70.7220 182° South 292 336 8,900 2,400 Climbing FlightAware ADS-B
Tue 11:22:35 AM 42.2010 -70.7400 195° South 272 313 10,900 2,786 Climbing FlightAware ADS-B
Tue 11:22:51 AM 42.1880 -70.7590 227° Southwest 277 319 11,500 2,600 Climbing FlightAware ADS-B
Tue 11:23:05 AM 42.1810 -70.7840 249° West 275 316 12,200 2,556 Climbing FlightAware ADS-B
Tue 11:23:45 AM 42.1720 -70.8530 260° West 290 334 13,800 2,471 Climbing FlightAware ADS-B
Tue 11:24:30 AM 42.1720 -70.9310 270° West 289 333 15,700 2,657 Climbing FlightAware ADS-B
Tue 11:24:55 AM 42.1730 -70.9790 272° West 285 328 16,900 2,612 Climbing FlightAware ADS-B
Tue 11:25:55 AM 42.1730 -71.0830 270° West 287 330 19,400 1,958 Climbing FlightAware ADS-B
Tue 11:26:30 AM 42.1730 -71.1510 270° West 319 367 20,000 450 Climbing FlightAware ADS-B
Tue 11:27:15 AM 42.1720 -71.2450 269° West 354 407 20,000  Level FlightAware ADS-B
Tue 11:28:00 AM 42.1720 -71.3450 270° West 355 409 20,000  Level FlightAware ADS-B
Tue 11:28:40 AM 42.1720 -71.4330 270° West 354 407 20,000  Level FlightAware ADS-B
Tue 11:29:25 AM 42.1720 -71.5320 270° West 354 407 20,000  Level FlightAware ADS-B
Tue 11:30:06 AM 42.1710 -71.6180 269° West 352 405 20,000  Level FlightAware ADS-B
Tue 11:30:49 AM 42.1710 -71.7060 270° West 354 407 20,000  Level FlightAware ADS-B
Tue 11:31:30 AM 42.1700 -71.8010 269° West 355 409 20,000  Level FlightAware ADS-B
Tue 11:32:10 AM 42.1700 -71.8890 270° West 355 409 20,000  Level FlightAware ADS-B
Tue 11:32:55 AM 42.1690 -71.9950 269° West 362 417 20,000  Level FlightAware ADS-B
Tue 11:33:35 AM 42.1690 -72.0850 270° West 363 418 20,000 -659 Level FlightAware ADS-B
Tue 11:34:17 AM 42.1680 -72.1760 269° West 342 394 19,100 -1,341 Descending FlightAware ADS-B
Tue 11:35:00 AM 42.1670 -72.2670 269° West 325 374 18,100 -1,446 Descending FlightAware ADS-B
Tue 11:35:40 AM 42.1660 -72.3510 269° West 334 384 17,100 -795 Descending FlightAware ADS-B
Tue 11:36:23 AM 42.1570 -72.4370 262° West 334 384 17,000 -70 Descending FlightAware ADS-B
Tue 11:37:06 AM 42.1370 -72.5210 252° West 333 383 17,000  Level FlightAware ADS-B
Tue 11:37:59 AM 42.1140 -72.6170 252° West 333 383 17,000  Level FlightAware ADS-B
Tue 11:38:48 AM 42.0990 -72.6770 251° West 331 381 17,000 -267 Level FlightAware ADS-B
Tue 11:39:29 AM 42.0700 -72.7940 252° West 331 381 16,600 -308 Descending FlightAware ADS-B
Tue 11:40:06 AM 42.0550 -72.8550 252° West 331 381 16,600  Level FlightAware ADS-B
Tue 11:40:54 AM 42.0340 -72.9350 251° West 331 381 16,600  Level FlightAware ADS-B
Tue 11:41:30 AM 42.0190 -72.9940 251° West 331 381 16,600  Level FlightAware ADS-B
Tue 11:42:31 AM 41.9930 -73.0950 251° West 331 381 16,600 -483 Level FlightAware ADS-B
Tue 11:46:28 AM 41.8730 -73.5920 252° West 315 362 14,200 -755 Descending FlightAware ADS-B
Tue 11:47:09 AM 41.8530 -73.6700 251° West 313 360 13,100 -1,553 Descending FlightAware ADS-B
Tue 11:47:53 AM 41.8320 -73.7520 251° West 308 354 12,000 -1,463 Descending FlightAware ADS-B
Tue 11:48:31 AM 41.8150 -73.8180 251° West 302 348 11,100 -1,011 Descending FlightAware ADS-B
Tue 11:49:22 AM 41.7940 -73.9000 251° West 297 342 10,500 -364 Descending FlightAware ADS-B
Tue 11:50:10 AM 41.7760 -73.9710 251° West 297 342 10,500  Level FlightAware ADS-B
Tue 11:50:45 AM 41.7630 -74.0230 251° West 297 342 10,500 -233 Level FlightAware ADS-B
Tue 11:52:19 AM 41.7156 -74.2061 251° West 296 341 10,000 -584 Descending Boston Center
Tue 11:53:19 AM 41.6686 -74.2742 227° Southwest 290 334 9,000 -1,300 Descending Boston Center
Tue 11:54:19 AM 41.6050 -74.3392 217° Southwest 271 312 7,400 -1,000 Descending Boston Center
Tue 11:55:19 AM 41.5519 -74.3903 216° Southwest 265 305 7,000 -200 Descending Boston Center
Tue 11:56:19 AM 41.4883 -74.4519 216° Southwest 265 305 7,000 -500 Level Boston Center
Tue 11:57:19 AM 41.4333 -74.5028 215° Southwest 270 311 6,000 -465 Descending Boston Center
Tue 12:02:46 PM 41.1364 -74.3577 215° Southwest 282 325 4,000 -350 Descending FlightAware ADS-B
Tue 12:03:02 PM 41.1245 -74.3348 125° Southeast 282 325 4,000  Level FlightAware ADS-B
Tue 12:03:21 PM 41.1112 -74.3084 124° Southeast 281 323 4,000  Level FlightAware ADS-B
Tue 12:04:26 PM 41.0986 -74.1999 99° East 281 323 4,000  Level FlightAware ADS-B
Tue 12:04:44 PM 41.0958 -74.1687 97° East 281 323 4,000  Level FlightAware ADS-B
Tue 12:04:53 PM 41.0945 -74.1530 96° East 277 319 4,000  Level FlightAware ADS-B
Tue 12:05:10 PM 41.0919 -74.1245 97° East 279 321 4,000 -977 Level FlightAware ADS-B
Tue 12:05:36 PM 41.0760 -74.0872 119° Southeast 271 312 3,300 -1,655 Descending FlightAware ADS-B
Tue 12:05:39 PM 41.0728 -74.0845 148° Southeast 266 306 3,200 -1,500 Descending FlightAware ADS-B
Tue 12:05:44 PM 41.0684 -74.0814 152° Southeast 264 304 3,100 -1,895 Descending FlightAware ADS-B
Tue 12:05:58 PM 41.0521 -74.0731 159° South 260 299 2,600 -2,000 Descending FlightAware ADS-B
Tue 12:06:14 PM 41.0341 -74.0663 164° South 244 281 2,100 -1,125 Descending FlightAware ADS-B
Tue 12:06:30 PM 41.0180 -74.0605 165° South 220 253 2,000 -194 Descending FlightAware ADS-B
Tue 12:06:45 PM 41.0032 -74.0552 165° South 215 247 2,000  Level FlightAware ADS-B
Tue 12:07:01 PM 40.9886 -74.0505 166° South 206 237 2,000  Level FlightAware ADS-B
Tue 12:07:07 PM 40.9829 -74.0500 176° South 192 221 2,000  Level FlightAware ADS-B
Tue 12:07:17 PM 40.9742 -74.0502 181° South 179 206 2,000  Level FlightAware ADS-B
Tue 12:07:32 PM 40.9618 -74.0508 182° South 174 200 2,000 -214 Level FlightAware ADS-B
Tue 12:07:45 PM 40.9513 -74.0516 183° South 173 199 1,900 -643 Descending FlightAware ADS-B
Tue 12:08:00 PM 40.9393 -74.0527 184° South 171 197 1,700 -774 Descending FlightAware ADS-B
Tue 12:08:16 PM 40.9271 -74.0537 184° South 170 196 1,500 -960 Descending FlightAware ADS-B
Tue 12:08:25 PM 40.9201 -74.0543 184° South 162 186 1,300 -1,043 Descending FlightAware ADS-B
Tue 12:08:39 PM 40.9103 -74.0551 184° South 150 173 1,100 -667 Descending FlightAware ADS-B
Tue 12:08:52 PM 40.9016 -74.0557 183° South 138 159 1,000 -522 Descending FlightAware ADS-B
Tue 12:09:02 PM 40.8952 -74.0560 182° South 138 159 900 -800 Descending FlightAware ADS-B
Tue 12:09:07 PM 40.8920 -74.0563 184° South 135 155 800 -750 Descending FlightAware ADS-B
Tue 12:09:18 PM 40.8851 -74.0568 183° South 129 148 700 -667 Descending FlightAware ADS-B
Tue 12:09:34 PM 40.8756 -74.0577 184° South 127 146 500 -783 Descending FlightAware ADS-B
Tue 12:09:41 PM 40.8720 -74.0580 184° South 122 140 400 -857 Descending FlightAware ADS-B

Login

Don't have an account? Register now (free) for customized features, flight alerts, and more!